Time;durP1;ratioP1;P1;durP2;ratioP2;P2;SDS_P1;SDS_P2;PMS_P1;PMS_P2;Temp;Humidity;BMP_temperature;BMP_pressure;BME280_temperature;BME280_humidity;BME280_pressure;Samples;Min_cycle;Max_cycle;Signal;HPM_P1;HPM_P2
2021/06/09 00:00:33;;;;;;;1.47;1.37;;;18.40;98.80;;;;;;5135442;27;20480;-80
2021/06/09 00:02:59;;;;;;;2.07;1.90;;;18.40;98.90;;;;;;5135495;27;20583;-80
2021/06/09 00:05:25;;;;;;;1.80;1.53;;;18.30;99.00;;;;;;5135001;27;20564;-80
2021/06/09 00:07:51;;;;;;;1.60;1.50;;;18.30;99.70;;;;;;5135522;27;20531;-80
2021/06/09 00:10:18;;;;;;;2.87;2.20;;;18.30;99.90;;;;;;5135460;27;20472;-80
2021/06/09 00:12:45;;;;;;;2.50;1.83;;;18.30;99.90;;;;;;5135050;27;20500;-80
2021/06/09 00:15:13;;;;;;;1.73;1.63;;;18.30;99.90;;;;;;5135375;27;20472;-80
2021/06/09 00:17:40;;;;;;;1.40;1.23;;;18.30;99.90;;;;;;5135062;27;20808;-80
2021/06/09 00:20:09;;;;;;;1.60;1.30;;;18.20;99.90;;;;;;5135014;27;20441;-80
2021/06/09 00:22:35;;;;;;;1.40;1.30;;;18.20;99.90;;;;;;5135017;27;20441;-81
2021/06/09 00:25:01;;;;;;;1.47;1.37;;;18.20;99.90;;;;;;5135022;27;20890;-79
2021/06/09 00:27:27;;;;;;;1.40;1.30;;;18.20;99.60;;;;;;5134890;27;20445;-79
2021/06/09 00:29:55;;;;;;;2.40;1.50;;;18.20;99.60;;;;;;5135069;27;20454;-79
2021/06/09 00:32:21;;;;;;;2.03;1.83;;;18.20;99.90;;;;;;5134670;27;20468;-79
2021/06/09 00:34:47;;;;;;;1.70;1.60;;;18.10;99.90;;;;;;5134034;27;20939;-79
2021/06/09 00:37:13;;;;;;;2.10;1.33;;;18.10;99.90;;;;;;5134911;27;20867;-79
2021/06/09 00:39:39;;;;;;;1.67;1.57;;;18.00;99.90;;;;;;5134723;27;20441;-79
2021/06/09 00:42:05;;;;;;;1.80;1.60;;;17.90;99.90;;;;;;5134845;27;20437;-80
2021/06/09 00:44:31;;;;;;;1.90;1.80;;;17.90;99.90;;;;;;5134573;27;20469;-81
2021/06/09 00:46:59;;;;;;;2.13;1.93;;;17.90;99.90;;;;;;5134409;27;20444;-80
2021/06/09 00:49:25;;;;;;;2.20;2.00;;;17.80;99.90;;;;;;5134819;27;20445;-81
2021/06/09 00:51:51;;;;;;;1.80;1.70;;;17.70;99.90;;;;;;5134598;27;20454;-80
2021/06/09 00:54:17;;;;;;;2.80;2.23;;;17.70;99.90;;;;;;5134333;27;20804;-81
2021/06/09 00:56:43;;;;;;;2.30;2.10;;;17.60;99.90;;;;;;5134066;27;20480;-71
2021/06/09 00:59:09;;;;;;;2.00;1.43;;;17.60;99.90;;;;;;5134445;27;20480;-80
2021/06/09 01:01:35;;;;;;;2.20;2.00;;;17.50;99.90;;;;;;5134160;27;20532;-82
2021/06/09 01:04:05;;;;;;;2.93;2.40;;;17.50;99.90;;;;;;5134061;27;20470;-81
2021/06/09 01:06:31;;;;;;;3.30;2.30;;;17.40;99.90;;;;;;5134109;27;20519;-82
2021/06/09 01:08:57;;;;;;;2.20;2.00;;;17.40;99.90;;;;;;5134178;27;20812;-82
2021/06/09 01:11:25;;;;;;;2.23;2.03;;;17.30;99.90;;;;;;5134126;27;20451;-83
2021/06/09 01:13:52;;;;;;;2.60;2.00;;;17.30;99.90;;;;;;5133970;27;20468;-82
2021/06/09 01:16:20;;;;;;;1.93;1.63;;;17.20;99.90;;;;;;5133958;27;20476;-82
2021/06/09 01:18:49;;;;;;;2.00;1.80;;;17.20;99.90;;;;;;5134183;27;20466;-81
2021/06/09 01:21:17;;;;;;;3.07;1.70;;;17.10;99.90;;;;;;5134138;27;20458;-81
2021/06/09 01:23:45;;;;;;;1.90;1.80;;;17.10;99.90;;;;;;5133896;27;20444;-81
2021/06/09 01:26:12;;;;;;;2.70;2.30;;;17.00;99.90;;;;;;5133844;27;20480;-81
2021/06/09 01:28:38;;;;;;;2.43;2.23;;;17.00;99.90;;;;;;5133657;27;20536;-81
2021/06/09 01:31:04;;;;;;;1.93;1.67;;;16.90;99.90;;;;;;5133930;27;20441;-82
2021/06/09 01:33:30;;;;;;;2.00;1.90;;;16.90;99.90;;;;;;5133807;27;20637;-82
2021/06/09 01:35:56;;;;;;;2.27;1.70;;;16.90;99.90;;;;;;5133741;27;21006;-82
2021/06/09 01:38:23;;;;;;;2.43;1.93;;;16.80;99.90;;;;;;5133615;27;20887;-82
2021/06/09 01:40:51;;;;;;;2.03;1.80;;;16.80;99.90;;;;;;5133672;27;20472;-81
2021/06/09 01:43:18;;;;;;;1.93;1.83;;;16.80;99.90;;;;;;5133578;27;20440;-81
2021/06/09 01:45:44;;;;;;;2.20;1.90;;;16.80;99.90;;;;;;5133320;27;20996;-81
2021/06/09 01:48:11;;;;;;;2.03;1.93;;;16.70;99.90;;;;;;5133050;27;20468;-81
2021/06/09 01:50:40;;;;;;;2.10;1.97;;;16.70;99.90;;;;;;5133495;27;20472;-81
2021/06/09 01:53:09;;;;;;;3.03;1.67;;;16.70;99.90;;;;;;5133579;27;20807;-80
2021/06/09 01:55:38;;;;;;;2.07;1.83;;;16.70;99.90;;;;;;5133562;27;20522;-81
2021/06/09 01:58:07;;;;;;;2.10;2.00;;;16.70;99.90;;;;;;5133250;27;20447;-80
2021/06/09 02:00:36;;;;;;;2.20;2.10;;;16.70;99.90;;;;;;5133446;28;20440;-80
2021/06/09 02:03:02;;;;;;;4.20;2.10;;;16.70;99.90;;;;;;5133451;28;20448;-80
2021/06/09 02:05:30;;;;;;;2.30;2.10;;;16.70;99.90;;;;;;5133351;28;21050;-81
2021/06/09 02:07:58;;;;;;;2.03;1.83;;;16.60;99.90;;;;;;5133422;28;20889;-81
2021/06/09 02:10:25;;;;;;;2.80;2.60;;;16.60;99.90;;;;;;5133243;27;20519;-80
2021/06/09 02:12:53;;;;;;;2.10;2.00;;;16.50;99.90;;;;;;5133120;28;20492;-81
2021/06/09 02:15:23;;;;;;;2.07;1.97;;;16.50;99.90;;;;;;5133312;28;20527;-80
2021/06/09 02:17:56;;;;;;;2.17;1.97;;;16.50;99.90;;;;;;5133360;27;20498;-80
2021/06/09 02:20:24;;;;;;;2.50;2.30;;;16.40;99.90;;;;;;5133232;27;20463;-79
2021/06/09 02:22:51;;;;;;;2.93;2.63;;;16.40;99.90;;;;;;5133082;28;20440;-80
2021/06/09 02:25:17;;;;;;;4.93;2.40;;;16.30;99.90;;;;;;5133339;28;20500;-79
2021/06/09 02:27:44;;;;;;;2.03;1.93;;;16.30;99.90;;;;;;5133258;28;20484;-80
2021/06/09 02:30:11;;;;;;;2.40;2.20;;;16.30;99.90;;;;;;5133352;28;20531;-80
2021/06/09 02:32:40;;;;;;;2.43;2.27;;;16.30;99.90;;;;;;5132881;28;20480;-80
2021/06/09 02:35:12;;;;;;;2.77;2.57;;;16.20;99.90;;;;;;5133177;28;20472;-80
2021/06/09 02:37:38;;;;;;;2.80;2.60;;;16.20;99.90;;;;;;5132939;28;20553;-80
2021/06/09 02:40:08;;;;;;;3.07;2.70;;;16.20;99.90;;;;;;5133059;28;20882;-80
2021/06/09 02:42:34;;;;;;;3.80;3.10;;;16.20;99.90;;;;;;5132951;28;20447;-80
2021/06/09 02:45:00;;;;;;;3.07;2.87;;;16.20;99.90;;;;;;5133020;28;20491;-80
2021/06/09 02:47:27;;;;;;;2.73;2.53;;;16.10;99.90;;;;;;5133021;28;20440;-80
2021/06/09 02:49:58;;;;;;;2.80;2.60;;;16.10;99.90;;;;;;5132789;28;20503;-80
2021/06/09 02:52:27;;;;;;;2.90;2.70;;;16.10;99.90;;;;;;5133148;27;20532;-80
2021/06/09 02:55:00;;;;;;;3.43;3.13;;;16.10;99.90;;;;;;5132950;28;20536;-81
2021/06/09 02:57:34;;;;;;;3.00;2.80;;;16.10;99.90;;;;;;5133160;27;20525;-81
2021/06/09 03:00:05;;;;;;;3.83;3.27;;;16.10;99.90;;;;;;5136709;27;20532;-81
2021/06/09 03:02:40;;;;;;;3.60;3.40;;;16.10;99.90;;;;;;5136634;27;20476;-81
2021/06/09 03:05:15;;;;;;;3.97;3.67;;;16.10;99.90;;;;;;5136709;27;20511;-80
2021/06/09 03:07:51;;;;;;;4.53;4.23;;;16.10;99.90;;;;;;5136764;27;20479;-81
2021/06/09 03:10:23;;;;;;;4.57;4.17;;;16.10;99.90;;;;;;5136530;27;20479;-81
2021/06/09 03:12:54;;;;;;;5.27;3.83;;;16.10;99.90;;;;;;5136047;27;20528;-80
2021/06/09 03:15:29;;;;;;;4.33;4.03;;;16.20;99.90;;;;;;5136659;27;20452;-80
2021/06/09 03:18:03;;;;;;;3.87;3.57;;;16.20;99.90;;;;;;5136569;27;20533;-80
2021/06/09 03:20:40;;;;;;;3.80;3.57;;;16.20;99.90;;;;;;5136446;27;20440;-80
2021/06/09 03:23:11;;;;;;;5.00;3.30;;;16.20;99.90;;;;;;5136351;27;20468;-81
2021/06/09 03:25:43;;;;;;;3.50;3.23;;;16.20;99.90;;;;;;5136500;27;20511;-81
2021/06/09 03:28:19;;;;;;;4.30;3.97;;;16.20;99.90;;;;;;5136324;27;21305;-80
2021/06/09 03:30:51;;;;;;;3.90;3.70;;;16.20;99.90;;;;;;5150333;27;20826;-80
2021/06/09 03:33:19;;;;;;;6.40;3.77;;;16.30;99.90;;;;;;5136228;27;20867;-80
2021/06/09 03:35:51;;;;;;;4.57;4.17;;;16.30;99.90;;;;;;5135805;27;20889;-80
2021/06/09 03:38:24;;;;;;;4.53;4.10;;;16.40;99.90;;;;;;5136209;27;20858;-80
2021/06/09 03:40:57;;;;;;;4.27;3.97;;;16.40;99.90;;;;;;5136031;27;20498;-81
2021/06/09 03:43:24;;;;;;;4.93;4.43;;;16.40;99.90;;;;;;5135950;27;20439;-81
2021/06/09 03:45:53;;;;;;;4.70;4.20;;;16.50;99.90;;;;;;5135708;27;20566;-81
2021/06/09 03:48:21;;;;;;;5.30;4.43;;;16.50;99.90;;;;;;5135741;27;20852;-80
2021/06/09 03:50:49;;;;;;;5.17;3.80;;;16.60;99.90;;;;;;5135688;27;20448;-80
2021/06/09 03:53:15;;;;;;;4.97;4.27;;;16.60;99.90;;;;;;5135784;27;20963;-81
2021/06/09 03:55:47;;;;;;;5.10;4.20;;;16.70;99.90;;;;;;5135789;27;20452;-81
2021/06/09 03:58:16;;;;;;;4.40;4.00;;;16.70;99.90;;;;;;5135676;27;20541;-81
2021/06/09 04:00:45;;;;;;;4.87;4.47;;;16.80;99.90;;;;;;5118834;27;20970;-80
2021/06/09 04:03:12;;;;;;;4.10;3.80;;;16.90;99.90;;;;;;5135721;27;20476;-82
2021/06/09 04:05:41;;;;;;;6.10;4.07;;;16.90;99.90;;;;;;5135171;27;20479;-82
2021/06/09 04:08:11;;;;;;;3.47;3.17;;;17.00;99.90;;;;;;5135683;27;20547;-82
2021/06/09 04:10:40;;;;;;;2.70;2.53;;;17.10;99.90;;;;;;5134140;27;20473;-82
2021/06/09 04:13:07;;;;;;;2.50;2.30;;;17.30;99.90;;;;;;5135215;27;20905;-81
2021/06/09 04:15:34;;;;;;;3.30;2.87;;;17.30;99.90;;;;;;5135140;27;20491;-81
2021/06/09 04:18:01;;;;;;;3.23;3.03;;;17.50;99.90;;;;;;5135533;27;20540;-80
2021/06/09 04:20:29;;;;;;;2.67;2.53;;;17.50;99.90;;;;;;5135228;27;20444;-80
2021/06/09 04:22:55;;;;;;;2.70;2.50;;;17.60;99.90;;;;;;5135269;27;20445;-80
2021/06/09 04:25:24;;;;;;;2.80;2.60;;;17.70;99.90;;;;;;5134856;27;20465;-80
2021/06/09 04:27:51;;;;;;;2.40;2.30;;;17.70;99.90;;;;;;5134994;27;20445;-80
2021/06/09 04:30:20;;;;;;;2.43;2.10;;;17.80;99.90;;;;;;5134850;27;20472;-80
2021/06/09 04:32:51;;;;;;;3.00;2.80;;;17.80;99.90;;;;;;5135020;27;20476;-81
2021/06/09 04:35:19;;;;;;;3.20;3.00;;;17.90;99.90;;;;;;5134847;27;20804;-80
2021/06/09 04:37:45;;;;;;;2.67;2.40;;;17.90;99.90;;;;;;5134837;27;20476;-81
2021/06/09 04:40:17;;;;;;;2.67;2.47;;;18.00;99.90;;;;;;5134673;27;20444;-80
2021/06/09 04:42:46;;;;;;;3.50;3.00;;;18.10;99.90;;;;;;5118006;27;20447;-80
2021/06/09 04:45:13;;;;;;;2.60;2.40;;;18.10;99.90;;;;;;5134705;27;20493;-80
2021/06/09 04:47:40;;;;;;;4.50;2.43;;;18.20;99.90;;;;;;5134639;27;20449;-80
2021/06/09 04:50:08;;;;;;;4.33;3.10;;;18.20;99.90;;;;;;5134377;27;20506;-80
2021/06/09 04:52:34;;;;;;;3.07;2.77;;;18.30;99.90;;;;;;5134203;27;20951;-81
2021/06/09 04:55:00;;;;;;;5.37;2.57;;;18.40;99.90;;;;;;5134282;27;20527;-81
2021/06/09 04:57:26;;;;;;;2.47;2.27;;;18.40;99.90;;;;;;5134748;27;20550;-82
2021/06/09 04:59:53;;;;;;;3.87;2.13;;;18.50;99.90;;;;;;5134453;27;20472;-81
2021/06/09 05:02:20;;;;;;;2.53;2.33;;;18.50;99.90;;;;;;5124959;27;20453;-82
2021/06/09 05:04:46;;;;;;;4.23;2.50;;;18.60;99.90;;;;;;5134071;27;20448;-82
2021/06/09 05:07:12;;;;;;;2.50;2.30;;;18.70;99.90;;;;;;5134181;27;20451;-81
2021/06/09 05:09:39;;;;;;;1.90;1.80;;;18.70;99.90;;;;;;5134187;27;20476;-81
2021/06/09 05:12:13;;;;;;;2.83;2.20;;;18.80;99.90;;;;;;5134060;27;20476;-81
2021/06/09 05:14:44;;;;;;;1.90;1.80;;;18.80;99.90;;;;;;5133843;27;20476;-81
2021/06/09 05:17:13;;;;;;;3.20;1.77;;;18.90;99.90;;;;;;5134077;27;20472;-81
2021/06/09 05:19:41;;;;;;;3.77;2.33;;;19.00;99.90;;;;;;5134128;27;20838;-82
2021/06/09 05:22:14;;;;;;;4.63;2.10;;;19.10;99.90;;;;;;5133690;27;20511;-81
2021/06/09 05:24:41;;;;;;;2.27;1.47;;;19.20;99.90;;;;;;5117203;27;20526;-81
2021/06/09 05:27:10;;;;;;;1.70;1.60;;;19.30;99.90;;;;;;5133775;27;20484;-80
2021/06/09 05:29:38;;;;;;;2.07;1.83;;;19.40;99.90;;;;;;5133880;27;20476;-81
2021/06/09 05:32:07;;;;;;;2.00;1.67;;;19.40;99.90;;;;;;5133790;27;20441;-80
2021/06/09 05:34:36;;;;;;;2.17;1.97;;;19.50;99.90;;;;;;5133613;27;20465;-81
2021/06/09 05:37:03;;;;;;;2.50;1.67;;;19.60;99.90;;;;;;5133683;27;20476;-80
2021/06/09 05:39:29;;;;;;;2.10;1.80;;;19.70;99.90;;;;;;5132466;27;20978;-81
2021/06/09 05:41:55;;;;;;;3.30;2.50;;;19.80;99.90;;;;;;5133769;27;20468;-81
2021/06/09 05:44:23;;;;;;;2.60;2.07;;;19.90;99.90;;;;;;5133534;27;20476;-81
2021/06/09 05:46:50;;;;;;;2.20;1.50;;;20.10;99.90;;;;;;5133344;27;20989;-81
2021/06/09 05:49:21;;;;;;;1.60;1.50;;;20.30;99.90;;;;;;5133544;27;20480;-81
2021/06/09 05:51:50;;;;;;;2.83;1.67;;;20.50;99.90;;;;;;5133621;27;20436;-81
2021/06/09 05:54:16;;;;;;;1.47;1.37;;;20.70;99.90;;;;;;5133594;27;20897;-81
2021/06/09 05:56:42;;;;;;;3.97;1.60;;;21.00;99.90;;;;;;5133253;27;21002;-81
2021/06/09 05:59:11;;;;;;;1.63;1.20;;;21.30;99.90;;;;;;5133535;27;20477;-81
2021/06/09 06:01:38;;;;;;;1.50;1.40;;;21.70;99.90;;;;;;5129201;28;20528;-81
2021/06/09 06:04:04;;;;;;;4.83;1.50;;;22.30;99.90;;;;;;5128564;28;20437;-81
2021/06/09 06:06:32;;;;;;;2.23;1.60;;;22.90;99.90;;;;;;5133281;28;20888;-80
2021/06/09 06:08:59;;;;;;;1.40;1.30;;;23.50;99.90;;;;;;5133473;27;20472;-81
2021/06/09 06:11:26;;;;;;;2.67;1.40;;;24.00;99.90;;;;;;5133299;28;20510;-81
2021/06/09 06:13:53;;;;;;;3.07;1.80;;;24.50;98.60;;;;;;5133120;28;20555;-81
2021/06/09 06:16:20;;;;;;;2.40;1.63;;;24.80;97.70;;;;;;5133140;28;20445;-80
2021/06/09 06:18:48;;;;;;;2.23;1.50;;;25.20;97.70;;;;;;5133303;28;20441;-82
2021/06/09 06:21:18;;;;;;;5.97;1.67;;;25.60;97.10;;;;;;5133447;28;20821;-81
2021/06/09 06:23:45;;;;;;;3.07;1.17;;;26.00;95.90;;;;;;5133414;28;20519;-81
2021/06/09 06:26:16;;;;;;;3.97;3.23;;;26.30;94.30;;;;;;5133147;28;20508;-80
2021/06/09 06:28:43;;;;;;;1.57;1.47;;;26.50;93.90;;;;;;5129175;28;20466;-83
2021/06/09 06:31:12;;;;;;;4.60;1.83;;;26.60;93.10;;;;;;5131526;28;20531;-82
2021/06/09 06:33:40;;;;;;;2.43;1.33;;;26.90;93.10;;;;;;5134802;27;20812;-82
2021/06/09 06:36:07;;;;;;;2.43;1.67;;;27.10;92.60;;;;;;5138640;27;20460;-82
2021/06/09 06:38:36;;;;;;;3.50;1.60;;;27.30;92.00;;;;;;5133979;27;20465;-82
2021/06/09 06:41:03;;;;;;;2.20;2.00;;;27.40;91.70;;;;;;5134876;27;20809;-82
2021/06/09 06:43:30;;;;;;;1.90;1.50;;;27.50;90.80;;;;;;5134652;27;20535;-82
2021/06/09 06:45:56;;;;;;;3.20;1.50;;;27.30;90.70;;;;;;5136679;27;21049;-81
2021/06/09 06:48:23;;;;;;;1.90;1.60;;;27.30;90.40;;;;;;5137215;27;20535;-82
2021/06/09 06:50:50;;;;;;;2.70;1.40;;;27.30;90.90;;;;;;5136521;27;20894;-82
2021/06/09 06:53:17;;;;;;;1.20;1.10;;;27.60;90.90;;;;;;5135079;27;20483;-82
2021/06/09 06:55:43;;;;;;;4.10;2.43;;;27.80;90.20;;;;;;5135936;27;20484;-81
2021/06/09 06:58:10;;;;;;;2.70;1.60;;;28.00;90.30;;;;;;5136420;27;20464;-81
2021/06/09 07:00:38;;;;;;;4.00;2.70;;;28.10;87.20;;;;;;5139488;27;20531;-82
2021/06/09 07:03:08;;;;;;;3.73;1.60;;;28.00;87.60;;;;;;5144741;27;20472;-82
2021/06/09 07:05:35;;;;;;;1.57;1.20;;;28.10;88.70;;;;;;5136003;27;21663;-82
2021/06/09 07:08:02;;;;;;;3.67;1.57;;;28.10;86.30;;;;;;5135804;27;20531;-82
2021/06/09 07:10:29;;;;;;;1.20;1.10;;;28.10;85.30;;;;;;5135362;27;20468;-86
2021/06/09 07:12:58;;;;;;;1.60;1.43;;;28.00;86.30;;;;;;5135093;27;20904;-85
2021/06/09 07:15:27;;;;;;;2.70;1.37;;;27.80;84.60;;;;;;5135295;27;20440;-85
2021/06/09 07:17:57;;;;;;;2.77;1.63;;;27.80;85.70;;;;;;5135417;27;20437;-83
2021/06/09 07:20:25;;;;;;;1.33;1.23;;;27.80;84.50;;;;;;5135432;27;20445;-84
2021/06/09 07:22:52;;;;;;;1.33;1.23;;;27.90;85.80;;;;;;5134986;27;21046;-84
2021/06/09 07:25:20;;;;;;;2.03;1.47;;;28.00;85.40;;;;;;5136340;27;20444;-85
2021/06/09 07:27:50;;;;;;;2.23;1.30;;;28.20;83.70;;;;;;5135657;27;20437;-82
2021/06/09 07:30:20;;;;;;;1.60;1.50;;;28.30;84.80;;;;;;5134473;27;20870;-82
2021/06/09 07:32:48;;;;;;;2.00;1.40;;;28.40;84.20;;;;;;5135204;27;20801;-83
2021/06/09 07:35:17;;;;;;;1.60;1.50;;;28.60;84.80;;;;;;5135223;27;21002;-82
2021/06/09 07:37:47;;;;;;;1.50;1.40;;;28.70;84.70;;;;;;5134372;27;20568;-82
2021/06/09 07:40:18;;;;;;;3.00;1.40;;;28.80;82.20;;;;;;5134070;27;20451;-79
2021/06/09 07:42:48;;;;;;;1.87;1.30;;;29.00;81.50;;;;;;5134887;27;20599;-80
2021/06/09 07:45:18;;;;;;;1.33;1.23;;;29.00;80.40;;;;;;5135770;27;20476;-84
2021/06/09 07:47:46;;;;;;;1.23;1.10;;;29.00;79.60;;;;;;5128092;27;20959;-81
2021/06/09 07:50:21;;;;;;;3.43;1.33;;;29.00;78.40;;;;;;5121107;27;20461;-81
2021/06/09 07:52:48;;;;;;;1.97;1.30;;;28.70;78.00;;;;;;5129877;27;20962;-81
2021/06/09 07:55:15;;;;;;;1.93;1.40;;;28.60;78.40;;;;;;5135189;27;20472;-81
2021/06/09 07:57:43;;;;;;;4.77;1.40;;;28.60;79.90;;;;;;5135255;27;20506;-81
2021/06/09 08:00:12;;;;;;;2.80;1.50;;;28.40;79.70;;;;;;5135031;27;20485;-81
2021/06/09 08:02:40;;;;;;;1.30;1.20;;;28.30;79.30;;;;;;5127904;27;20784;-81
2021/06/09 08:05:08;;;;;;;5.50;1.30;;;28.30;79.60;;;;;;5134433;27;20536;-81
2021/06/09 08:07:37;;;;;;;1.70;1.13;;;28.40;79.20;;;;;;5134568;27;20469;-81
2021/06/09 08:10:07;;;;;;;4.80;1.30;;;28.50;78.90;;;;;;5131434;27;20476;-81
2021/06/09 08:12:34;;;;;;;1.63;1.20;;;28.30;78.80;;;;;;5136058;27;20477;-81
2021/06/09 08:15:00;;;;;;;2.00;1.17;;;28.30;80.30;;;;;;5133770;27;20514;-82
2021/06/09 08:17:26;;;;;;;1.60;1.50;;;28.30;80.20;;;;;;5134918;27;20455;-81
2021/06/09 08:19:53;;;;;;;1.77;1.20;;;28.40;79.70;;;;;;5134898;27;21039;-81
2021/06/09 08:22:22;;;;;;;2.17;1.30;;;28.40;80.90;;;;;;5134685;27;20536;-81
2021/06/09 08:24:49;;;;;;;1.97;1.20;;;28.40;80.30;;;;;;5134017;27;20464;-81
2021/06/09 08:27:16;;;;;;;2.77;1.33;;;28.40;79.40;;;;;;5133193;27;21020;-81
2021/06/09 08:29:43;;;;;;;2.37;1.20;;;28.30;78.20;;;;;;5133420;27;20480;-81
2021/06/09 08:32:09;;;;;;;1.57;1.30;;;28.30;79.30;;;;;;5133672;27;20452;-81
2021/06/09 08:34:35;;;;;;;1.40;1.10;;;28.20;79.10;;;;;;5133855;27;20922;-81
2021/06/09 08:37:02;;;;;;;1.30;1.20;;;28.10;79.40;;;;;;5133857;27;20532;-81
2021/06/09 08:39:28;;;;;;;3.90;1.27;;;27.90;79.90;;;;;;5133011;27;20475;-81
2021/06/09 08:41:57;;;;;;;3.00;1.43;;;27.70;78.10;;;;;;5133684;27;20487;-81
2021/06/09 08:44:24;;;;;;;1.50;1.40;;;27.30;78.60;;;;;;5133192;27;20437;-81
2021/06/09 08:46:53;;;;;;;1.40;1.30;;;27.00;80.20;;;;;;5131228;27;20563;-82
2021/06/09 08:49:21;;;;;;;1.30;1.20;;;26.80;80.10;;;;;;5133667;27;20493;-82
2021/06/09 08:51:48;;;;;;;5.90;1.60;;;26.70;81.30;;;;;;5133677;27;20469;-82
2021/06/09 08:54:15;;;;;;;2.03;1.33;;;26.60;80.90;;;;;;5138662;27;21133;-82
2021/06/09 08:56:42;;;;;;;1.27;1.17;;;26.50;80.30;;;;;;5115466;27;20505;-81
2021/06/09 08:59:09;;;;;;;5.70;1.37;;;26.30;79.60;;;;;;5134065;27;20963;-82
2021/06/09 09:01:35;;;;;;;5.70;2.53;;;25.90;80.70;;;;;;5130532;27;20529;-81
2021/06/09 09:04:02;;;;;;;1.67;1.10;;;25.80;82.10;;;;;;5138810;27;20812;-81
2021/06/09 09:06:28;;;;;;;1.83;1.47;;;25.70;83.60;;;;;;5133594;27;20497;-82
2021/06/09 09:08:55;;;;;;;2.30;1.50;;;25.80;82.40;;;;;;5133364;27;20954;-82
2021/06/09 09:11:21;;;;;;;1.20;1.10;;;25.80;80.90;;;;;;5133579;27;20980;-81
2021/06/09 09:13:47;;;;;;;1.63;1.33;;;25.70;82.30;;;;;;5133308;27;20504;-82
2021/06/09 09:16:15;;;;;;;1.00;0.90;;;25.70;82.20;;;;;;5133403;27;20999;-82
2021/06/09 09:18:42;;;;;;;1.60;1.40;;;25.70;83.20;;;;;;5131293;27;20531;-82
2021/06/09 09:21:10;;;;;;;2.03;1.43;;;25.70;81.80;;;;;;5133600;27;20444;-82
2021/06/09 09:23:37;;;;;;;1.53;1.40;;;25.50;82.50;;;;;;5130740;27;20479;-82
2021/06/09 09:26:22;;;;;;;1.60;1.50;;;25.40;82.50;;;;;;5133221;27;20468;-82
2021/06/09 09:28:49;;;;;;;1.30;1.20;;;25.30;82.40;;;;;;5133374;27;20812;-82
2021/06/09 09:31:18;;;;;;;2.97;1.60;;;25.30;82.20;;;;;;5133353;27;20437;-82
2021/06/09 09:33:45;;;;;;;3.20;1.60;;;25.30;83.20;;;;;;5130695;27;20477;-82
2021/06/09 09:36:25;;;;;;;1.33;1.23;;;25.50;82.60;;;;;;5132472;27;20488;-82
2021/06/09 09:38:52;;;;;;;2.30;1.23;;;25.50;80.00;;;;;;5131202;27;20519;-82
2021/06/09 09:41:19;;;;;;;5.43;1.30;;;25.40;81.50;;;;;;5132518;27;20503;-82
2021/06/09 09:43:53;;;;;;;1.57;1.10;;;25.30;82.70;;;;;;5132646;27;20472;-82
2021/06/09 09:46:23;;;;;;;2.13;1.20;;;25.40;82.40;;;;;;5132688;27;20464;-82
2021/06/09 09:49:05;;;;;;;1.57;1.10;;;25.50;82.20;;;;;;5130000;27;20516;-82
2021/06/09 09:51:32;;;;;;;3.07;1.27;;;25.50;82.20;;;;;;5129707;27;20472;-82
2021/06/09 09:54:01;;;;;;;1.40;1.30;;;25.50;83.00;;;;;;5132980;27;20943;-82
2021/06/09 09:56:28;;;;;;;1.43;1.10;;;25.50;82.20;;;;;;5131183;27;20536;-82
2021/06/09 09:58:58;;;;;;;1.60;1.50;;;25.50;81.40;;;;;;5132875;27;21095;-82
2021/06/09 10:01:26;;;;;;;1.37;1.27;;;25.40;81.10;;;;;;5132709;27;20437;-82
2021/06/09 10:03:55;;;;;;;1.40;1.20;;;25.20;81.90;;;;;;5133001;27;20447;-82
2021/06/09 10:06:27;;;;;;;1.73;1.60;;;25.20;81.50;;;;;;5135358;27;20835;-82
2021/06/09 10:08:55;;;;;;;1.73;1.30;;;25.20;80.20;;;;;;5133562;27;21011;-82
2021/06/09 10:11:22;;;;;;;1.93;1.10;;;25.10;80.00;;;;;;5137254;27;20475;-83
2021/06/09 10:13:49;;;;;;;1.93;1.20;;;25.20;79.20;;;;;;5134177;27;20990;-82
2021/06/09 10:16:24;;;;;;;2.27;1.40;;;25.10;79.60;;;;;;5137437;27;20444;-82
2021/06/09 10:19:06;;;;;;;3.50;1.50;;;25.10;79.80;;;;;;5137003;27;20468;-82
2021/06/09 10:21:34;;;;;;;1.60;1.50;;;25.20;82.10;;;;;;5136964;27;20444;-83
2021/06/09 10:24:05;;;;;;;2.00;1.40;;;25.30;82.40;;;;;;5136777;27;20479;-82
2021/06/09 10:26:31;;;;;;;1.40;1.30;;;25.30;81.90;;;;;;5138808;27;20480;-81
2021/06/09 10:29:00;;;;;;;1.70;1.20;;;25.30;80.80;;;;;;5136948;27;20879;-82
2021/06/09 10:31:28;;;;;;;1.50;1.40;;;25.20;81.30;;;;;;5137333;27;20476;-81
2021/06/09 10:33:54;;;;;;;2.73;1.63;;;25.20;81.10;;;;;;5135858;27;20449;-82
2021/06/09 10:36:22;;;;;;;1.33;1.20;;;25.30;81.40;;;;;;5136956;27;20487;-81
2021/06/09 10:38:50;;;;;;;1.73;1.30;;;25.30;81.30;;;;;;5136802;27;20449;-82
2021/06/09 10:41:17;;;;;;;4.30;1.40;;;25.30;79.10;;;;;;5136742;27;20445;-82
2021/06/09 10:43:47;;;;;;;1.60;1.30;;;25.30;80.60;;;;;;5136868;27;20532;-82
2021/06/09 10:46:17;;;;;;;3.80;1.40;;;25.20;82.00;;;;;;5129794;27;20473;-82
2021/06/09 10:48:44;;;;;;;1.80;1.43;;;25.20;80.90;;;;;;5135427;27;20927;-82
2021/06/09 10:51:10;;;;;;;1.37;1.27;;;25.20;82.00;;;;;;5136580;27;20444;-81
2021/06/09 10:53:38;;;;;;;1.90;1.20;;;25.20;81.20;;;;;;5136663;27;21026;-84
2021/06/09 10:56:04;;;;;;;1.90;1.30;;;25.30;81.50;;;;;;5135752;27;20472;-82
2021/06/09 10:58:31;;;;;;;1.10;1.00;;;25.30;81.30;;;;;;5136376;27;20830;-82
2021/06/09 11:00:58;;;;;;;5.30;1.70;;;25.30;81.30;;;;;;5135967;27;20479;-82
2021/06/09 11:03:25;;;;;;;1.30;1.17;;;25.40;83.10;;;;;;5136285;27;20780;-82
2021/06/09 11:05:52;;;;;;;3.00;1.30;;;25.50;80.30;;;;;;5132271;27;20815;-82
2021/06/09 11:08:18;;;;;;;1.57;1.43;;;25.50;80.80;;;;;;5136349;27;20566;-82
2021/06/09 11:10:49;;;;;;;2.30;1.40;;;25.60;80.90;;;;;;5135681;27;20441;-82
2021/06/09 11:13:28;;;;;;;1.67;1.40;;;25.60;79.90;;;;;;5133328;27;20479;-83
2021/06/09 11:16:05;;;;;;;1.97;1.73;;;25.60;79.00;;;;;;5136313;27;20437;-81
2021/06/09 11:18:35;;;;;;;1.30;1.10;;;25.50;79.30;;;;;;5135926;27;20437;-82
2021/06/09 11:21:02;;;;;;;1.27;1.17;;;25.50;78.90;;;;;;5131977;27;20445;-82
2021/06/09 11:23:32;;;;;;;4.00;1.20;;;25.50;79.40;;;;;;5136345;27;20468;-82
2021/06/09 11:26:00;;;;;;;2.83;1.23;;;25.50;79.50;;;;;;5135559;27;20471;-83
2021/06/09 11:28:45;;;;;;;1.33;1.20;;;25.50;79.80;;;;;;5136595;27;20611;-83
2021/06/09 11:31:20;;;;;;;1.70;1.30;;;25.70;80.10;;;;;;5131150;27;20451;-82
2021/06/09 11:33:54;;;;;;;1.87;1.77;;;25.60;79.30;;;;;;5134961;27;20472;-83
2021/06/09 11:36:41;;;;;;;2.67;1.30;;;25.60;80.00;;;;;;5135357;27;20444;-82
2021/06/09 11:39:11;;;;;;;1.57;1.47;;;25.70;79.40;;;;;;5134957;27;20525;-82
2021/06/09 11:41:51;;;;;;;9.13;1.60;;;25.70;79.90;;;;;;5135304;27;20471;-82
2021/06/09 11:44:45;;;;;;;1.17;1.07;;;25.90;79.50;;;;;;5135875;27;20470;-82
2021/06/09 11:47:19;;;;;;;2.20;2.00;;;26.00;77.70;;;;;;5122909;27;20510;-82
2021/06/09 11:49:47;;;;;;;2.20;2.00;;;26.00;78.40;;;;;;5132453;27;20954;-82
2021/06/09 11:52:13;;;;;;;1.40;1.30;;;25.90;80.30;;;;;;5135158;27;20471;-82
2021/06/09 11:54:39;;;;;;;1.20;1.10;;;26.00;78.70;;;;;;5132635;27;20856;-83
2021/06/09 11:57:17;;;;;;;1.50;1.40;;;26.00;78.50;;;;;;5134824;27;20536;-80
2021/06/09 11:59:44;;;;;;;1.37;1.27;;;26.10;78.90;;;;;;5131946;27;20451;-81
2021/06/09 12:02:18;;;;;;;2.40;1.00;;;26.20;77.90;;;;;;5134824;27;20833;-82
2021/06/09 12:04:46;;;;;;;1.63;1.20;;;26.30;77.90;;;;;;5130849;27;20442;-81
2021/06/09 12:07:19;;;;;;;2.80;1.27;;;26.30;77.50;;;;;;5133897;27;20500;-81
2021/06/09 12:09:45;;;;;;;3.07;1.47;;;26.30;78.00;;;;;;5132971;27;20531;-81
2021/06/09 12:12:15;;;;;;;1.37;1.23;;;26.20;77.10;;;;;;5134488;27;20476;-81
2021/06/09 12:14:44;;;;;;;2.13;1.30;;;26.30;75.90;;;;;;5135038;27;20436;-81
2021/06/09 12:17:22;;;;;;;1.87;1.43;;;26.30;75.60;;;;;;5135215;27;20549;-81
2021/06/09 12:19:52;;;;;;;2.03;1.37;;;26.30;74.60;;;;;;5134651;27;20461;-81
2021/06/09 12:22:21;;;;;;;2.53;1.20;;;26.30;74.40;;;;;;5134516;27;20524;-81
2021/06/09 12:25:01;;;;;;;3.50;1.43;;;26.30;73.20;;;;;;5134607;27;20811;-81
2021/06/09 12:27:29;;;;;;;1.23;1.10;;;26.30;74.30;;;;;;5135039;27;20592;-81
2021/06/09 12:29:55;;;;;;;1.30;1.20;;;26.40;74.90;;;;;;5125712;27;20441;-82
2021/06/09 12:32:26;;;;;;;1.07;0.97;;;26.50;74.90;;;;;;5134716;27;20970;-81
2021/06/09 12:35:00;;;;;;;0.93;0.93;;;26.60;74.10;;;;;;5134874;27;20437;-83
2021/06/09 12:37:28;;;;;;;2.40;1.00;;;26.80;74.40;;;;;;5133572;27;20458;-81
2021/06/09 12:39:57;;;;;;;1.30;1.20;;;26.90;72.20;;;;;;5134286;27;20449;-81
2021/06/09 12:42:23;;;;;;;1.77;1.23;;;27.00;72.60;;;;;;5132286;27;21562;-81
2021/06/09 12:44:52;;;;;;;1.87;1.40;;;27.10;71.40;;;;;;5133128;27;20878;-81
2021/06/09 12:47:40;;;;;;;1.50;1.40;;;27.20;72.30;;;;;;5134242;27;20472;-82
2021/06/09 12:50:22;;;;;;;1.43;1.33;;;27.20;71.90;;;;;;5131195;27;20502;-82
2021/06/09 12:52:51;;;;;;;2.53;1.47;;;27.40;73.20;;;;;;5134510;27;20552;-83
2021/06/09 12:55:23;;;;;;;1.63;1.30;;;27.50;72.20;;;;;;5134333;27;20477;-83